sensor_id;sensor_type;location;lat;lon;timestamp;P1;durP1;ratioP1;P2;durP2;ratioP2
10721;SDS011;5412;59.450;18.124;2023-06-22T00:00:54;7.60;;;6.25;;
10721;SDS011;5412;59.450;18.124;2023-06-22T00:03:21;7.07;;;6.38;;
10721;SDS011;5412;59.450;18.124;2023-06-22T00:05:48;6.10;;;5.53;;
10721;SDS011;5412;59.450;18.124;2023-06-22T00:08:14;10.13;;;5.85;;
10721;SDS011;5412;59.450;18.124;2023-06-22T00:10:41;6.60;;;6.00;;
10721;SDS011;5412;59.450;18.124;2023-06-22T00:13:07;6.68;;;6.05;;
10721;SDS011;5412;59.450;18.124;2023-06-22T00:15:34;6.18;;;5.68;;
10721;SDS011;5412;59.450;18.124;2023-06-22T00:18:01;6.80;;;6.20;;
10721;SDS011;5412;59.450;18.124;2023-06-22T00:20:27;7.18;;;6.47;;
10721;SDS011;5412;59.450;18.124;2023-06-22T00:22:55;6.93;;;6.32;;
10721;SDS011;5412;59.450;18.124;2023-06-22T00:25:21;8.10;;;6.57;;
10721;SDS011;5412;59.450;18.124;2023-06-22T00:27:47;7.82;;;6.00;;
10721;SDS011;5412;59.450;18.124;2023-06-22T00:30:14;6.65;;;5.75;;
10721;SDS011;5412;59.450;18.124;2023-06-22T00:32:41;6.70;;;6.10;;
10721;SDS011;5412;59.450;18.124;2023-06-22T00:35:07;6.32;;;5.75;;
10721;SDS011;5412;59.450;18.124;2023-06-22T00:37:34;7.45;;;6.47;;
10721;SDS011;5412;59.450;18.124;2023-06-22T00:40:01;6.10;;;5.60;;
10721;SDS011;5412;59.450;18.124;2023-06-22T00:42:27;6.40;;;5.80;;
10721;SDS011;5412;59.450;18.124;2023-06-22T00:44:52;6.88;;;6.13;;
10721;SDS011;5412;59.450;18.124;2023-06-22T00:47:18;7.43;;;6.57;;
10721;SDS011;5412;59.450;18.124;2023-06-22T00:49:44;6.82;;;6.20;;
10721;SDS011;5412;59.450;18.124;2023-06-22T00:52:11;7.05;;;6.40;;
10721;SDS011;5412;59.450;18.124;2023-06-22T00:54:48;6.57;;;5.97;;
10721;SDS011;5412;59.450;18.124;2023-06-22T00:57:16;8.82;;;6.88;;
10721;SDS011;5412;59.450;18.124;2023-06-22T00:59:44;7.00;;;6.25;;
10721;SDS011;5412;59.450;18.124;2023-06-22T01:02:10;7.88;;;6.28;;
10721;SDS011;5412;59.450;18.124;2023-06-22T01:04:37;6.82;;;6.22;;
10721;SDS011;5412;59.450;18.124;2023-06-22T01:09:37;6.93;;;6.22;;
10721;SDS011;5412;59.450;18.124;2023-06-22T01:12:14;7.70;;;7.00;;
10721;SDS011;5412;59.450;18.124;2023-06-22T01:14:45;6.55;;;5.93;;
10721;SDS011;5412;59.450;18.124;2023-06-22T01:17:17;8.73;;;6.70;;
10721;SDS011;5412;59.450;18.124;2023-06-22T01:19:45;7.50;;;6.80;;
10721;SDS011;5412;59.450;18.124;2023-06-22T01:22:20;7.63;;;6.88;;
10721;SDS011;5412;59.450;18.124;2023-06-22T01:25:00;8.43;;;6.82;;
10721;SDS011;5412;59.450;18.124;2023-06-22T01:27:44;7.20;;;6.50;;
10721;SDS011;5412;59.450;18.124;2023-06-22T01:30:21;7.15;;;6.45;;
10721;SDS011;5412;59.450;18.124;2023-06-22T01:32:50;8.15;;;6.72;;
10721;SDS011;5412;59.450;18.124;2023-06-22T01:35:17;7.47;;;6.78;;
10721;SDS011;5412;59.450;18.124;2023-06-22T01:37:45;7.63;;;6.90;;
10721;SDS011;5412;59.450;18.124;2023-06-22T01:40:12;8.20;;;7.32;;
10721;SDS011;5412;59.450;18.124;2023-06-22T01:42:38;9.63;;;7.18;;
10721;SDS011;5412;59.450;18.124;2023-06-22T01:45:04;8.65;;;7.63;;
10721;SDS011;5412;59.450;18.124;2023-06-22T01:47:31;7.63;;;7.03;;
10721;SDS011;5412;59.450;18.124;2023-06-22T01:49:57;10.00;;;7.97;;
10721;SDS011;5412;59.450;18.124;2023-06-22T01:52:23;8.68;;;7.88;;
10721;SDS011;5412;59.450;18.124;2023-06-22T01:54:49;9.23;;;8.32;;
10721;SDS011;5412;59.450;18.124;2023-06-22T01:57:15;8.82;;;8.00;;
10721;SDS011;5412;59.450;18.124;2023-06-22T01:59:44;8.90;;;8.10;;
10721;SDS011;5412;59.450;18.124;2023-06-22T02:02:25;9.20;;;8.35;;
10721;SDS011;5412;59.450;18.124;2023-06-22T02:05:03;9.48;;;8.48;;
10721;SDS011;5412;59.450;18.124;2023-06-22T02:07:37;12.15;;;8.52;;
10721;SDS011;5412;59.450;18.124;2023-06-22T02:10:07;9.35;;;8.27;;
10721;SDS011;5412;59.450;18.124;2023-06-22T02:12:34;10.25;;;8.88;;
10721;SDS011;5412;59.450;18.124;2023-06-22T02:15:01;9.98;;;8.65;;
10721;SDS011;5412;59.450;18.124;2023-06-22T02:17:28;11.40;;;8.90;;
10721;SDS011;5412;59.450;18.124;2023-06-22T02:19:58;10.40;;;8.52;;
10721;SDS011;5412;59.450;18.124;2023-06-22T02:22:24;9.43;;;8.50;;
10721;SDS011;5412;59.450;18.124;2023-06-22T02:24:49;10.23;;;8.70;;
10721;SDS011;5412;59.450;18.124;2023-06-22T02:27:15;10.38;;;9.38;;
10721;SDS011;5412;59.450;18.124;2023-06-22T02:29:41;8.68;;;7.97;;
10721;SDS011;5412;59.450;18.124;2023-06-22T02:32:07;9.93;;;8.82;;
10721;SDS011;5412;59.450;18.124;2023-06-22T02:34:32;9.82;;;9.00;;
10721;SDS011;5412;59.450;18.124;2023-06-22T02:36:59;9.55;;;8.60;;
10721;SDS011;5412;59.450;18.124;2023-06-22T02:39:27;10.52;;;9.48;;
10721;SDS011;5412;59.450;18.124;2023-06-22T02:41:53;9.02;;;8.23;;
10721;SDS011;5412;59.450;18.124;2023-06-22T02:44:20;9.80;;;8.90;;
10721;SDS011;5412;59.450;18.124;2023-06-22T02:46:46;9.35;;;8.45;;
10721;SDS011;5412;59.450;18.124;2023-06-22T02:49:13;9.70;;;8.80;;
10721;SDS011;5412;59.450;18.124;2023-06-22T02:51:42;10.25;;;9.18;;
10721;SDS011;5412;59.450;18.124;2023-06-22T02:54:10;9.52;;;8.63;;
10721;SDS011;5412;59.450;18.124;2023-06-22T02:56:36;10.05;;;9.15;;
10721;SDS011;5412;59.450;18.124;2023-06-22T02:59:02;9.98;;;9.07;;
10721;SDS011;5412;59.450;18.124;2023-06-22T03:01:28;9.40;;;8.50;;
10721;SDS011;5412;59.450;18.124;2023-06-22T03:03:58;9.80;;;8.80;;
10721;SDS011;5412;59.450;18.124;2023-06-22T03:06:24;9.20;;;8.40;;
10721;SDS011;5412;59.450;18.124;2023-06-22T03:08:53;9.82;;;8.93;;
10721;SDS011;5412;59.450;18.124;2023-06-22T03:11:24;9.73;;;8.82;;
10721;SDS011;5412;59.450;18.124;2023-06-22T03:13:49;8.65;;;7.85;;
10721;SDS011;5412;59.450;18.124;2023-06-22T03:16:17;25.77;;;8.38;;
10721;SDS011;5412;59.450;18.124;2023-06-22T03:18:43;9.07;;;8.18;;
10721;SDS011;5412;59.450;18.124;2023-06-22T03:21:09;8.95;;;7.75;;
10721;SDS011;5412;59.450;18.124;2023-06-22T03:23:35;10.15;;;9.15;;
10721;SDS011;5412;59.450;18.124;2023-06-22T03:26:01;9.50;;;8.60;;
10721;SDS011;5412;59.450;18.124;2023-06-22T03:28:27;9.68;;;8.68;;
10721;SDS011;5412;59.450;18.124;2023-06-22T03:30:53;11.30;;;8.35;;
10721;SDS011;5412;59.450;18.124;2023-06-22T03:33:19;9.32;;;8.40;;
10721;SDS011;5412;59.450;18.124;2023-06-22T03:35:45;8.93;;;8.15;;
10721;SDS011;5412;59.450;18.124;2023-06-22T03:38:10;9.05;;;8.25;;
10721;SDS011;5412;59.450;18.124;2023-06-22T03:40:36;10.20;;;8.65;;
10721;SDS011;5412;59.450;18.124;2023-06-22T03:43:02;9.18;;;8.25;;
10721;SDS011;5412;59.450;18.124;2023-06-22T03:45:27;9.07;;;8.02;;
10721;SDS011;5412;59.450;18.124;2023-06-22T03:47:53;8.68;;;7.88;;
10721;SDS011;5412;59.450;18.124;2023-06-22T03:50:19;8.63;;;7.82;;
10721;SDS011;5412;59.450;18.124;2023-06-22T03:52:45;9.25;;;8.13;;
10721;SDS011;5412;59.450;18.124;2023-06-22T03:55:12;8.20;;;7.50;;
10721;SDS011;5412;59.450;18.124;2023-06-22T03:57:37;9.18;;;8.32;;
10721;SDS011;5412;59.450;18.124;2023-06-22T04:00:03;10.73;;;8.55;;
10721;SDS011;5412;59.450;18.124;2023-06-22T04:02:31;8.77;;;7.97;;
10721;SDS011;5412;59.450;18.124;2023-06-22T04:04:56;9.00;;;8.20;;
10721;SDS011;5412;59.450;18.124;2023-06-22T04:07:22;10.23;;;8.30;;
10721;SDS011;5412;59.450;18.124;2023-06-22T04:09:48;8.75;;;7.95;;
10721;SDS011;5412;59.450;18.124;2023-06-22T04:12:14;8.65;;;7.85;;
10721;SDS011;5412;59.450;18.124;2023-06-22T04:14:39;9.10;;;8.20;;
10721;SDS011;5412;59.450;18.124;2023-06-22T04:17:05;10.48;;;7.85;;
10721;SDS011;5412;59.450;18.124;2023-06-22T04:19:31;8.50;;;7.50;;
10721;SDS011;5412;59.450;18.124;2023-06-22T04:21:56;8.65;;;7.85;;
10721;SDS011;5412;59.450;18.124;2023-06-22T04:24:22;8.55;;;7.70;;
10721;SDS011;5412;59.450;18.124;2023-06-22T04:26:48;8.65;;;7.85;;
10721;SDS011;5412;59.450;18.124;2023-06-22T04:29:14;8.02;;;7.32;;
10721;SDS011;5412;59.450;18.124;2023-06-22T04:31:39;9.95;;;7.93;;
10721;SDS011;5412;59.450;18.124;2023-06-22T04:34:06;8.52;;;7.70;;
10721;SDS011;5412;59.450;18.124;2023-06-22T04:36:35;8.60;;;7.70;;
10721;SDS011;5412;59.450;18.124;2023-06-22T04:39:06;9.20;;;8.30;;
10721;SDS011;5412;59.450;18.124;2023-06-22T04:41:34;8.90;;;7.95;;
10721;SDS011;5412;59.450;18.124;2023-06-22T04:44:10;8.55;;;7.78;;
10721;SDS011;5412;59.450;18.124;2023-06-22T04:46:48;8.63;;;7.75;;
10721;SDS011;5412;59.450;18.124;2023-06-22T04:49:19;8.43;;;7.60;;
10721;SDS011;5412;59.450;18.124;2023-06-22T04:51:46;8.73;;;7.85;;
10721;SDS011;5412;59.450;18.124;2023-06-22T04:54:11;8.40;;;7.60;;
10721;SDS011;5412;59.450;18.124;2023-06-22T04:56:37;8.82;;;7.93;;
10721;SDS011;5412;59.450;18.124;2023-06-22T04:59:06;8.75;;;7.97;;
10721;SDS011;5412;59.450;18.124;2023-06-22T05:01:32;8.35;;;7.65;;
10721;SDS011;5412;59.450;18.124;2023-06-22T05:03:57;8.27;;;7.47;;
10721;SDS011;5412;59.450;18.124;2023-06-22T05:06:26;8.00;;;7.20;;
10721;SDS011;5412;59.450;18.124;2023-06-22T05:08:53;8.00;;;7.20;;
10721;SDS011;5412;59.450;18.124;2023-06-22T05:11:26;8.35;;;7.55;;
10721;SDS011;5412;59.450;18.124;2023-06-22T05:13:53;8.90;;;7.97;;
10721;SDS011;5412;59.450;18.124;2023-06-22T05:16:19;7.80;;;7.05;;
10721;SDS011;5412;59.450;18.124;2023-06-22T05:18:52;9.07;;;6.78;;
10721;SDS011;5412;59.450;18.124;2023-06-22T05:21:21;8.48;;;7.60;;
10721;SDS011;5412;59.450;18.124;2023-06-22T05:23:49;9.75;;;7.35;;
10721;SDS011;5412;59.450;18.124;2023-06-22T05:26:15;7.72;;;6.95;;
10721;SDS011;5412;59.450;18.124;2023-06-22T05:28:41;8.00;;;7.20;;
10721;SDS011;5412;59.450;18.124;2023-06-22T05:31:10;7.30;;;6.70;;
10721;SDS011;5412;59.450;18.124;2023-06-22T05:33:40;7.32;;;6.53;;
10721;SDS011;5412;59.450;18.124;2023-06-22T05:36:06;7.05;;;6.45;;
10721;SDS011;5412;59.450;18.124;2023-06-22T05:38:32;8.27;;;6.57;;
10721;SDS011;5412;59.450;18.124;2023-06-22T05:40:58;7.90;;;6.72;;
10721;SDS011;5412;59.450;18.124;2023-06-22T05:43:24;7.55;;;6.85;;
10721;SDS011;5412;59.450;18.124;2023-06-22T05:45:49;8.18;;;6.72;;
10721;SDS011;5412;59.450;18.124;2023-06-22T05:48:15;7.43;;;6.60;;
10721;SDS011;5412;59.450;18.124;2023-06-22T05:50:41;7.53;;;6.75;;
10721;SDS011;5412;59.450;18.124;2023-06-22T05:53:07;7.32;;;6.63;;
10721;SDS011;5412;59.450;18.124;2023-06-22T05:55:33;6.68;;;6.07;;
10721;SDS011;5412;59.450;18.124;2023-06-22T05:57:59;6.38;;;5.85;;
10721;SDS011;5412;59.450;18.124;2023-06-22T06:00:24;7.50;;;6.70;;
10721;SDS011;5412;59.450;18.124;2023-06-22T06:02:50;6.15;;;5.60;;
10721;SDS011;5412;59.450;18.124;2023-06-22T06:05:16;6.22;;;5.63;;
10721;SDS011;5412;59.450;18.124;2023-06-22T06:07:42;5.70;;;5.15;;
10721;SDS011;5412;59.450;18.124;2023-06-22T06:10:10;6.50;;;5.20;;
10721;SDS011;5412;59.450;18.124;2023-06-22T06:12:35;5.97;;;4.93;;
10721;SDS011;5412;59.450;18.124;2023-06-22T06:15:01;6.45;;;5.53;;
10721;SDS011;5412;59.450;18.124;2023-06-22T06:17:28;5.57;;;5.07;;
10721;SDS011;5412;59.450;18.124;2023-06-22T06:19:53;6.20;;;5.60;;
10721;SDS011;5412;59.450;18.124;2023-06-22T06:22:19;6.32;;;5.22;;
10721;SDS011;5412;59.450;18.124;2023-06-22T06:24:46;6.32;;;5.05;;
10721;SDS011;5412;59.450;18.124;2023-06-22T06:27:13;5.50;;;5.00;;
10721;SDS011;5412;59.450;18.124;2023-06-22T06:29:38;6.05;;;5.55;;
10721;SDS011;5412;59.450;18.124;2023-06-22T06:32:04;6.15;;;5.15;;
10721;SDS011;5412;59.450;18.124;2023-06-22T06:34:30;7.30;;;5.35;;
10721;SDS011;5412;59.450;18.124;2023-06-22T06:36:56;8.20;;;5.70;;
10721;SDS011;5412;59.450;18.124;2023-06-22T06:39:22;7.35;;;4.88;;
10721;SDS011;5412;59.450;18.124;2023-06-22T06:41:48;6.75;;;6.13;;
10721;SDS011;5412;59.450;18.124;2023-06-22T06:44:14;5.88;;;5.25;;
10721;SDS011;5412;59.450;18.124;2023-06-22T06:46:39;5.75;;;5.15;;
10721;SDS011;5412;59.450;18.124;2023-06-22T06:49:07;6.28;;;5.72;;
10721;SDS011;5412;59.450;18.124;2023-06-22T06:51:32;9.07;;;5.43;;
10721;SDS011;5412;59.450;18.124;2023-06-22T06:53:58;6.43;;;5.82;;
10721;SDS011;5412;59.450;18.124;2023-06-22T06:56:24;6.78;;;5.13;;
10721;SDS011;5412;59.450;18.124;2023-06-22T06:58:49;5.60;;;5.10;;
10721;SDS011;5412;59.450;18.124;2023-06-22T07:01:16;6.40;;;5.05;;
10721;SDS011;5412;59.450;18.124;2023-06-22T07:03:42;5.47;;;4.80;;
10721;SDS011;5412;59.450;18.124;2023-06-22T07:06:08;6.72;;;5.22;;
10721;SDS011;5412;59.450;18.124;2023-06-22T07:08:34;5.47;;;4.63;;
10721;SDS011;5412;59.450;18.124;2023-06-22T07:11:01;7.32;;;5.50;;
10721;SDS011;5412;59.450;18.124;2023-06-22T07:13:27;6.03;;;4.90;;
10721;SDS011;5412;59.450;18.124;2023-06-22T07:15:53;5.00;;;4.57;;
10721;SDS011;5412;59.450;18.124;2023-06-22T07:18:19;5.22;;;4.47;;
10721;SDS011;5412;59.450;18.124;2023-06-22T07:20:44;5.72;;;4.47;;
10721;SDS011;5412;59.450;18.124;2023-06-22T07:23:10;5.68;;;4.63;;
10721;SDS011;5412;59.450;18.124;2023-06-22T07:25:36;5.95;;;4.40;;
10721;SDS011;5412;59.450;18.124;2023-06-22T07:28:03;5.75;;;4.65;;
10721;SDS011;5412;59.450;18.124;2023-06-22T07:30:32;7.05;;;4.50;;
10721;SDS011;5412;59.450;18.124;2023-06-22T07:32:58;6.68;;;4.88;;
10721;SDS011;5412;59.450;18.124;2023-06-22T07:35:28;5.25;;;4.35;;
10721;SDS011;5412;59.450;18.124;2023-06-22T07:37:57;6.55;;;4.15;;
10721;SDS011;5412;59.450;18.124;2023-06-22T07:40:23;5.20;;;4.30;;
10721;SDS011;5412;59.450;18.124;2023-06-22T07:42:48;8.25;;;6.00;;
10721;SDS011;5412;59.450;18.124;2023-06-22T07:45:16;8.90;;;4.55;;
10721;SDS011;5412;59.450;18.124;2023-06-22T07:47:42;7.50;;;4.60;;
10721;SDS011;5412;59.450;18.124;2023-06-22T07:50:08;5.03;;;4.10;;
10721;SDS011;5412;59.450;18.124;2023-06-22T07:52:35;7.10;;;4.97;;
10721;SDS011;5412;59.450;18.124;2023-06-22T07:55:00;5.88;;;4.13;;
10721;SDS011;5412;59.450;18.124;2023-06-22T07:57:27;4.68;;;4.20;;
10721;SDS011;5412;59.450;18.124;2023-06-22T07:59:58;7.63;;;4.07;;
10721;SDS011;5412;59.450;18.124;2023-06-22T08:02:25;6.00;;;4.15;;
10721;SDS011;5412;59.450;18.124;2023-06-22T08:04:51;5.63;;;4.05;;
10721;SDS011;5412;59.450;18.124;2023-06-22T08:07:16;4.28;;;3.88;;
10721;SDS011;5412;59.450;18.124;2023-06-22T08:09:47;6.47;;;3.80;;
10721;SDS011;5412;59.450;18.124;2023-06-22T08:12:14;8.50;;;4.20;;
10721;SDS011;5412;59.450;18.124;2023-06-22T08:14:41;5.63;;;3.70;;
10721;SDS011;5412;59.450;18.124;2023-06-22T08:17:08;6.40;;;4.22;;
10721;SDS011;5412;59.450;18.124;2023-06-22T08:19:34;5.07;;;4.05;;
10721;SDS011;5412;59.450;18.124;2023-06-22T08:21:59;5.60;;;4.47;;
10721;SDS011;5412;59.450;18.124;2023-06-22T08:24:25;6.40;;;4.55;;
10721;SDS011;5412;59.450;18.124;2023-06-22T08:26:55;4.00;;;3.70;;
10721;SDS011;5412;59.450;18.124;2023-06-22T08:29:21;4.40;;;3.88;;
10721;SDS011;5412;59.450;18.124;2023-06-22T08:31:47;4.75;;;3.63;;
10721;SDS011;5412;59.450;18.124;2023-06-22T08:34:12;5.95;;;4.18;;
10721;SDS011;5412;59.450;18.124;2023-06-22T08:36:38;4.03;;;3.72;;
10721;SDS011;5412;59.450;18.124;2023-06-22T08:39:09;5.35;;;3.55;;
10721;SDS011;5412;59.450;18.124;2023-06-22T08:41:35;4.57;;;3.55;;
10721;SDS011;5412;59.450;18.124;2023-06-22T08:44:01;5.05;;;3.88;;
10721;SDS011;5412;59.450;18.124;2023-06-22T08:46:27;5.03;;;3.92;;
10721;SDS011;5412;59.450;18.124;2023-06-22T08:48:58;4.53;;;3.70;;
10721;SDS011;5412;59.450;18.124;2023-06-22T08:51:24;4.97;;;3.53;;
10721;SDS011;5412;59.450;18.124;2023-06-22T08:53:50;6.35;;;3.95;;
10721;SDS011;5412;59.450;18.124;2023-06-22T08:56:16;4.95;;;3.65;;
10721;SDS011;5412;59.450;18.124;2023-06-22T08:58:41;5.45;;;3.72;;
10721;SDS011;5412;59.450;18.124;2023-06-22T09:01:07;4.07;;;3.58;;
10721;SDS011;5412;59.450;18.124;2023-06-22T09:03:33;4.53;;;4.10;;
10721;SDS011;5412;59.450;18.124;2023-06-22T09:06:01;5.93;;;4.30;;
10721;SDS011;5412;59.450;18.124;2023-06-22T09:08:27;5.18;;;3.95;;
10721;SDS011;5412;59.450;18.124;2023-06-22T09:10:52;4.07;;;3.72;;
10721;SDS011;5412;59.450;18.124;2023-06-22T09:13:18;4.30;;;3.70;;
10721;SDS011;5412;59.450;18.124;2023-06-22T09:15:44;4.93;;;3.80;;
10721;SDS011;5412;59.450;18.124;2023-06-22T09:18:10;5.95;;;3.72;;
10721;SDS011;5412;59.450;18.124;2023-06-22T09:20:36;4.85;;;3.35;;
10721;SDS011;5412;59.450;18.124;2023-06-22T09:23:02;4.40;;;3.50;;
10721;SDS011;5412;59.450;18.124;2023-06-22T09:25:28;4.20;;;3.30;;
10721;SDS011;5412;59.450;18.124;2023-06-22T09:27:54;6.05;;;4.05;;
10721;SDS011;5412;59.450;18.124;2023-06-22T09:30:19;3.53;;;3.22;;
10721;SDS011;5412;59.450;18.124;2023-06-22T09:32:47;4.57;;;3.97;;
10721;SDS011;5412;59.450;18.124;2023-06-22T09:35:12;6.07;;;4.00;;
10721;SDS011;5412;59.450;18.124;2023-06-22T09:37:39;5.40;;;3.70;;
10721;SDS011;5412;59.450;18.124;2023-06-22T09:40:06;4.43;;;3.47;;
10721;SDS011;5412;59.450;18.124;2023-06-22T09:42:35;5.68;;;3.78;;
10721;SDS011;5412;59.450;18.124;2023-06-22T09:45:00;4.97;;;3.50;;
10721;SDS011;5412;59.450;18.124;2023-06-22T09:47:26;4.90;;;3.35;;
10721;SDS011;5412;59.450;18.124;2023-06-22T09:49:53;4.95;;;3.50;;
10721;SDS011;5412;59.450;18.124;2023-06-22T09:52:20;3.50;;;3.20;;
10721;SDS011;5412;59.450;18.124;2023-06-22T09:54:46;4.00;;;3.30;;
10721;SDS011;5412;59.450;18.124;2023-06-22T09:57:12;5.43;;;3.25;;
10721;SDS011;5412;59.450;18.124;2023-06-22T09:59:38;5.10;;;3.10;;
10721;SDS011;5412;59.450;18.124;2023-06-22T10:02:05;4.35;;;3.35;;
10721;SDS011;5412;59.450;18.124;2023-06-22T10:04:31;5.30;;;3.03;;
10721;SDS011;5412;59.450;18.124;2023-06-22T10:06:58;3.65;;;3.13;;
10721;SDS011;5412;59.450;18.124;2023-06-22T10:09:23;3.45;;;3.13;;
10721;SDS011;5412;59.450;18.124;2023-06-22T10:11:49;3.47;;;3.13;;
10721;SDS011;5412;59.450;18.124;2023-06-22T10:14:15;3.35;;;2.85;;
10721;SDS011;5412;59.450;18.124;2023-06-22T10:16:41;4.85;;;3.60;;
10721;SDS011;5412;59.450;18.124;2023-06-22T10:19:07;4.13;;;3.20;;
10721;SDS011;5412;59.450;18.124;2023-06-22T10:21:33;5.05;;;2.90;;
10721;SDS011;5412;59.450;18.124;2023-06-22T10:23:59;3.70;;;3.00;;
10721;SDS011;5412;59.450;18.124;2023-06-22T10:26:31;6.03;;;3.22;;
10721;SDS011;5412;59.450;18.124;2023-06-22T10:29:00;5.15;;;3.10;;
10721;SDS011;5412;59.450;18.124;2023-06-22T10:31:27;3.83;;;2.95;;
10721;SDS011;5412;59.450;18.124;2023-06-22T10:33:53;3.92;;;3.20;;
10721;SDS011;5412;59.450;18.124;2023-06-22T10:36:20;6.10;;;3.42;;
10721;SDS011;5412;59.450;18.124;2023-06-22T10:38:46;4.15;;;3.05;;
10721;SDS011;5412;59.450;18.124;2023-06-22T10:41:12;2.90;;;2.60;;
10721;SDS011;5412;59.450;18.124;2023-06-22T10:43:38;4.15;;;3.00;;
10721;SDS011;5412;59.450;18.124;2023-06-22T10:46:04;5.20;;;2.45;;
10721;SDS011;5412;59.450;18.124;2023-06-22T10:48:30;4.53;;;3.00;;
10721;SDS011;5412;59.450;18.124;2023-06-22T10:50:55;4.85;;;2.65;;
10721;SDS011;5412;59.450;18.124;2023-06-22T10:53:21;5.25;;;3.08;;
10721;SDS011;5412;59.450;18.124;2023-06-22T10:55:47;3.95;;;2.95;;
10721;SDS011;5412;59.450;18.124;2023-06-22T10:58:13;4.22;;;2.78;;
10721;SDS011;5412;59.450;18.124;2023-06-22T11:00:38;4.68;;;3.20;;
10721;SDS011;5412;59.450;18.124;2023-06-22T11:03:04;6.22;;;3.72;;
10721;SDS011;5412;59.450;18.124;2023-06-22T11:05:30;5.00;;;2.80;;
10721;SDS011;5412;59.450;18.124;2023-06-22T11:07:56;3.30;;;2.60;;
10721;SDS011;5412;59.450;18.124;2023-06-22T11:10:22;3.40;;;2.72;;
10721;SDS011;5412;59.450;18.124;2023-06-22T11:12:47;4.55;;;2.80;;
10721;SDS011;5412;59.450;18.124;2023-06-22T11:15:13;4.55;;;2.55;;
10721;SDS011;5412;59.450;18.124;2023-06-22T11:17:39;4.40;;;2.70;;
10721;SDS011;5412;59.450;18.124;2023-06-22T11:20:05;4.18;;;2.53;;
10721;SDS011;5412;59.450;18.124;2023-06-22T11:22:36;4.18;;;2.80;;
10721;SDS011;5412;59.450;18.124;2023-06-22T11:25:04;4.45;;;2.63;;
10721;SDS011;5412;59.450;18.124;2023-06-22T11:27:30;3.60;;;3.17;;
10721;SDS011;5412;59.450;18.124;2023-06-22T11:29:56;5.07;;;2.90;;
10721;SDS011;5412;59.450;18.124;2023-06-22T11:32:22;4.45;;;2.80;;
10721;SDS011;5412;59.450;18.124;2023-06-22T11:34:48;5.72;;;3.03;;
10721;SDS011;5412;59.450;18.124;2023-06-22T11:37:14;3.47;;;3.03;;
10721;SDS011;5412;59.450;18.124;2023-06-22T11:39:40;4.30;;;2.80;;
10721;SDS011;5412;59.450;18.124;2023-06-22T11:42:07;7.65;;;3.03;;
10721;SDS011;5412;59.450;18.124;2023-06-22T11:44:34;2.97;;;2.60;;
10721;SDS011;5412;59.450;18.124;2023-06-22T11:46:59;3.35;;;2.40;;
10721;SDS011;5412;59.450;18.124;2023-06-22T11:49:26;3.97;;;2.97;;
10721;SDS011;5412;59.450;18.124;2023-06-22T11:51:52;2.88;;;2.58;;
10721;SDS011;5412;59.450;18.124;2023-06-22T11:54:18;3.20;;;2.38;;
10721;SDS011;5412;59.450;18.124;2023-06-22T11:56:44;2.72;;;2.40;;
10721;SDS011;5412;59.450;18.124;2023-06-22T11:59:10;4.28;;;2.92;;
10721;SDS011;5412;59.450;18.124;2023-06-22T12:01:35;4.43;;;2.80;;
10721;SDS011;5412;59.450;18.124;2023-06-22T12:04:01;4.55;;;2.72;;
10721;SDS011;5412;59.450;18.124;2023-06-22T12:06:30;3.72;;;2.88;;
10721;SDS011;5412;59.450;18.124;2023-06-22T12:09:03;2.75;;;2.55;;
10721;SDS011;5412;59.450;18.124;2023-06-22T12:11:30;3.58;;;2.70;;
10721;SDS011;5412;59.450;18.124;2023-06-22T12:13:55;3.25;;;2.33;;
10721;SDS011;5412;59.450;18.124;2023-06-22T12:16:21;3.35;;;2.45;;
10721;SDS011;5412;59.450;18.124;2023-06-22T12:18:47;4.15;;;2.53;;
10721;SDS011;5412;59.450;18.124;2023-06-22T12:21:13;5.20;;;2.17;;
10721;SDS011;5412;59.450;18.124;2023-06-22T12:23:39;4.00;;;3.03;;
10721;SDS011;5412;59.450;18.124;2023-06-22T12:26:05;2.60;;;2.40;;
10721;SDS011;5412;59.450;18.124;2023-06-22T12:28:31;4.03;;;2.45;;
10721;SDS011;5412;59.450;18.124;2023-06-22T12:30:56;3.95;;;3.00;;
10721;SDS011;5412;59.450;18.124;2023-06-22T12:33:22;8.38;;;2.60;;
10721;SDS011;5412;59.450;18.124;2023-06-22T12:35:48;5.22;;;2.38;;
10721;SDS011;5412;59.450;18.124;2023-06-22T12:38:14;5.82;;;2.97;;
10721;SDS011;5412;59.450;18.124;2023-06-22T12:40:39;5.30;;;2.70;;
10721;SDS011;5412;59.450;18.124;2023-06-22T12:43:05;3.78;;;2.42;;
10721;SDS011;5412;59.450;18.124;2023-06-22T12:45:32;3.90;;;2.55;;
10721;SDS011;5412;59.450;18.124;2023-06-22T12:47:59;3.35;;;2.38;;
10721;SDS011;5412;59.450;18.124;2023-06-22T12:50:25;2.78;;;2.53;;
10721;SDS011;5412;59.450;18.124;2023-06-22T12:52:51;3.78;;;2.67;;
10721;SDS011;5412;59.450;18.124;2023-06-22T12:55:17;2.80;;;2.42;;
10721;SDS011;5412;59.450;18.124;2023-06-22T12:57:42;4.15;;;2.38;;
10721;SDS011;5412;59.450;18.124;2023-06-22T13:00:08;3.22;;;2.20;;
10721;SDS011;5412;59.450;18.124;2023-06-22T13:02:37;5.72;;;2.50;;
10721;SDS011;5412;59.450;18.124;2023-06-22T13:05:03;3.83;;;2.47;;
10721;SDS011;5412;59.450;18.124;2023-06-22T13:07:32;5.18;;;2.63;;
10721;SDS011;5412;59.450;18.124;2023-06-22T13:09:58;8.23;;;2.80;;
10721;SDS011;5412;59.450;18.124;2023-06-22T13:12:23;3.83;;;2.63;;
10721;SDS011;5412;59.450;18.124;2023-06-22T13:14:49;5.45;;;2.20;;
10721;SDS011;5412;59.450;18.124;2023-06-22T13:17:15;3.00;;;2.40;;
10721;SDS011;5412;59.450;18.124;2023-06-22T13:19:41;4.15;;;2.60;;
10721;SDS011;5412;59.450;18.124;2023-06-22T13:22:40;2.70;;;2.50;;
10721;SDS011;5412;59.450;18.124;2023-06-22T13:25:05;3.30;;;2.30;;
10721;SDS011;5412;59.450;18.124;2023-06-22T13:27:31;6.00;;;2.50;;
10721;SDS011;5412;59.450;18.124;2023-06-22T13:29:57;2.58;;;2.28;;
10721;SDS011;5412;59.450;18.124;2023-06-22T13:32:23;5.68;;;2.40;;
10721;SDS011;5412;59.450;18.124;2023-06-22T13:34:49;3.22;;;2.20;;
10721;SDS011;5412;59.450;18.124;2023-06-22T13:37:14;2.60;;;2.33;;
10721;SDS011;5412;59.450;18.124;2023-06-22T13:39:40;3.03;;;2.15;;
10721;SDS011;5412;59.450;18.124;2023-06-22T13:42:06;7.22;;;2.33;;
10721;SDS011;5412;59.450;18.124;2023-06-22T13:44:32;3.88;;;2.35;;
10721;SDS011;5412;59.450;18.124;2023-06-22T13:46:58;5.32;;;2.30;;
10721;SDS011;5412;59.450;18.124;2023-06-22T13:49:24;3.17;;;2.35;;
10721;SDS011;5412;59.450;18.124;2023-06-22T13:51:50;4.13;;;2.13;;
10721;SDS011;5412;59.450;18.124;2023-06-22T13:54:16;3.70;;;2.30;;
10721;SDS011;5412;59.450;18.124;2023-06-22T13:56:42;3.15;;;2.00;;
10721;SDS011;5412;59.450;18.124;2023-06-22T13:59:07;4.15;;;2.10;;
10721;SDS011;5412;59.450;18.124;2023-06-22T14:01:35;2.10;;;2.00;;
10721;SDS011;5412;59.450;18.124;2023-06-22T14:04:01;2.80;;;2.20;;
10721;SDS011;5412;59.450;18.124;2023-06-22T14:06:27;3.00;;;2.05;;
10721;SDS011;5412;59.450;18.124;2023-06-22T14:08:53;2.85;;;2.40;;
10721;SDS011;5412;59.450;18.124;2023-06-22T14:11:18;2.20;;;2.00;;
10721;SDS011;5412;59.450;18.124;2023-06-22T14:13:44;2.65;;;2.10;;
10721;SDS011;5412;59.450;18.124;2023-06-22T14:16:10;4.85;;;2.22;;
10721;SDS011;5412;59.450;18.124;2023-06-22T14:18:36;6.32;;;2.22;;
10721;SDS011;5412;59.450;18.124;2023-06-22T14:21:02;2.20;;;1.90;;
10721;SDS011;5412;59.450;18.124;2023-06-22T14:23:27;3.75;;;2.03;;
10721;SDS011;5412;59.450;18.124;2023-06-22T14:25:53;2.42;;;1.98;;
10721;SDS011;5412;59.450;18.124;2023-06-22T14:28:19;2.95;;;2.28;;
10721;SDS011;5412;59.450;18.124;2023-06-22T14:30:45;5.15;;;2.30;;
10721;SDS011;5412;59.450;18.124;2023-06-22T14:33:11;4.35;;;2.60;;
10721;SDS011;5412;59.450;18.124;2023-06-22T14:35:37;2.28;;;2.08;;
10721;SDS011;5412;59.450;18.124;2023-06-22T14:38:03;3.00;;;2.65;;
10721;SDS011;5412;59.450;18.124;2023-06-22T14:40:29;2.97;;;2.15;;
10721;SDS011;5412;59.450;18.124;2023-06-22T14:42:55;3.45;;;2.38;;
10721;SDS011;5412;59.450;18.124;2023-06-22T14:45:22;3.28;;;2.40;;
10721;SDS011;5412;59.450;18.124;2023-06-22T14:47:48;2.45;;;2.25;;